Time;durP1;ratioP1;P1;durP2;ratioP2;P2;SDS_P1;SDS_P2;PMS_P1;PMS_P2;Temp;Humidity;BMP_temperature;BMP_pressure;BME280_temperature;BME280_humidity;BME280_pressure;Samples;Min_cycle;Max_cycle;Signal;HPM_P1;HPM_P2
2022/12/05 00:01:36;;;;;;;14.25;12.75;;;0.50;99.90;;;;;;5013601;28;20084;-86
2022/12/05 00:04:06;;;;;;;47.03;12.70;;;0.50;99.90;;;;;;5014924;28;20034;-90
2022/12/05 00:06:33;;;;;;;11.68;10.48;;;0.40;99.90;;;;;;5019756;28;20131;-87
2022/12/05 00:09:00;;;;;;;26.65;12.45;;;0.50;99.90;;;;;;5017323;28;20131;-90
2022/12/05 00:11:31;;;;;;;25.30;12.73;;;0.60;99.90;;;;;;5012534;28;20026;-87
2022/12/05 00:13:58;;;;;;;14.50;13.23;;;0.50;99.90;;;;;;5019625;28;20574;-87
2022/12/05 00:16:26;;;;;;;19.40;14.75;;;0.60;99.90;;;;;;5010585;28;20034;-85
2022/12/05 00:18:52;;;;;;;12.77;11.32;;;0.50;99.90;;;;;;5021671;28;20032;-88
2022/12/05 00:21:24;;;;;;;15.77;14.20;;;0.60;99.90;;;;;;5016336;28;20017;-85
2022/12/05 00:23:52;;;;;;;17.73;16.17;;;0.50;99.90;;;;;;5018236;28;20057;-89
2022/12/05 00:26:18;;;;;;;22.63;17.70;;;0.50;99.90;;;;;;5053632;28;20022;-88
2022/12/05 00:28:43;;;;;;;19.27;15.35;;;0.50;99.90;;;;;;5018418;28;20098;-85
2022/12/05 00:31:20;;;;;;;18.33;15.15;;;0.40;99.90;;;;;;5017286;28;20044;-88
2022/12/05 00:33:47;;;;;;;16.58;15.02;;;0.50;99.90;;;;;;5014726;28;20122;-90
2022/12/05 00:36:36;;;;;;;13.70;12.40;;;0.40;99.90;;;;;;5058032;28;20034;-87
2022/12/05 00:39:11;;;;;;;11.18;10.00;;;0.50;99.90;;;;;;5016381;28;20061;-86
2022/12/05 00:41:37;;;;;;;17.42;15.90;;;0.50;99.90;;;;;;5017646;28;20041;-87
2022/12/05 00:44:06;;;;;;;18.08;15.90;;;0.40;99.90;;;;;;5009710;28;20108;-86
2022/12/05 00:46:33;;;;;;;16.58;15.18;;;0.40;99.90;;;;;;5016744;28;20080;-88
2022/12/05 00:49:01;;;;;;;18.85;16.05;;;0.40;99.90;;;;;;5018401;28;20073;-87
2022/12/05 00:51:32;;;;;;;18.35;16.50;;;0.40;99.90;;;;;;5012875;28;20492;-86
2022/12/05 00:54:02;;;;;;;18.33;16.67;;;0.50;99.90;;;;;;5024617;28;20030;-89
2022/12/05 00:56:30;;;;;;;15.45;14.00;;;0.50;99.90;;;;;;5015757;28;20029;-90
2022/12/05 00:58:59;;;;;;;15.05;11.65;;;0.50;99.90;;;;;;5019787;28;20029;-87
2022/12/05 01:01:28;;;;;;;48.90;45.85;;;0.50;99.90;;;;;;5015246;28;20042;-91
2022/12/05 01:03:57;;;;;;;15.52;14.43;;;0.50;99.90;;;;;;5015030;28;20025;-86
2022/12/05 01:06:24;;;;;;;17.52;15.73;;;0.40;99.90;;;;;;5012597;28;20057;-85
2022/12/05 01:08:52;;;;;;;16.25;14.70;;;0.40;99.90;;;;;;5014795;28;20094;-85
2022/12/05 01:11:18;;;;;;;26.17;24.30;;;0.40;99.90;;;;;;5021156;28;20156;-85
2022/12/05 01:13:45;;;;;;;13.70;12.52;;;0.30;99.90;;;;;;5014325;28;20022;-88
2022/12/05 01:16:18;;;;;;;18.42;12.88;;;0.40;99.90;;;;;;5018310;28;20031;-89
2022/12/05 01:18:44;;;;;;;22.00;14.95;;;0.40;99.90;;;;;;5015266;28;20030;-89
2022/12/05 01:21:09;;;;;;;17.05;15.68;;;0.40;99.90;;;;;;5022178;28;20026;-85
2022/12/05 01:23:35;;;;;;;22.42;20.08;;;0.50;99.90;;;;;;5022514;28;20026;-84
2022/12/05 01:26:05;;;;;;;17.45;15.75;;;0.50;99.90;;;;;;5012267;28;20033;-87
2022/12/05 01:28:31;;;;;;;21.70;19.38;;;0.40;99.90;;;;;;5020061;28;20771;-88
2022/12/05 01:30:57;;;;;;;23.98;14.00;;;0.40;99.90;;;;;;4997343;28;20044;-87
2022/12/05 01:33:22;;;;;;;16.13;14.07;;;0.40;99.90;;;;;;5035454;28;20476;-87
2022/12/05 01:35:49;;;;;;;13.65;12.10;;;0.40;99.90;;;;;;5018279;28;20083;-88
2022/12/05 01:38:15;;;;;;;18.63;16.27;;;0.40;99.90;;;;;;5014911;28;20076;-87
2022/12/05 01:40:40;;;;;;;18.88;16.73;;;0.40;99.90;;;;;;5020541;28;20097;-88
2022/12/05 01:43:17;;;;;;;23.42;21.25;;;0.50;99.90;;;;;;5014007;28;20808;-91
2022/12/05 01:45:45;;;;;;;98.30;89.57;;;0.50;99.90;;;;;;5008000;28;20037;-87
2022/12/05 01:48:16;;;;;;;89.78;80.13;;;0.60;99.90;;;;;;5015112;28;20033;-83
2022/12/05 01:50:43;;;;;;;21.17;17.35;;;0.60;99.90;;;;;;5023091;28;20026;-86
2022/12/05 01:53:08;;;;;;;28.75;16.88;;;0.60;99.90;;;;;;5014434;28;20548;-88
2022/12/05 01:55:35;;;;;;;18.38;16.80;;;0.60;99.90;;;;;;5015510;28;20033;-86
2022/12/05 01:58:04;;;;;;;18.63;16.48;;;0.70;99.90;;;;;;5018182;28;20522;-87
2022/12/05 02:00:29;;;;;;;21.95;18.98;;;0.70;99.90;;;;;;4994304;28;20073;-87
2022/12/05 02:02:59;;;;;;;22.95;17.85;;;0.70;99.90;;;;;;5022203;28;20059;-86
2022/12/05 02:05:35;;;;;;;25.17;22.10;;;0.80;99.90;;;;;;5010518;28;20130;-88
2022/12/05 02:08:04;;;;;;;36.05;28.33;;;0.70;99.90;;;;;;5019045;28;20063;-88
2022/12/05 02:10:40;;;;;;;21.00;18.77;;;0.80;99.90;;;;;;5018741;28;20657;-89
2022/12/05 02:13:22;;;;;;;19.00;17.17;;;0.80;99.90;;;;;;5013760;28;20033;-87
2022/12/05 02:16:06;;;;;;;16.25;14.77;;;0.80;99.90;;;;;;5015383;28;20394;-90
2022/12/05 02:18:56;;;;;;;23.25;16.88;;;0.90;99.90;;;;;;5011834;28;20033;-86
2022/12/05 02:21:40;;;;;;;23.20;16.95;;;0.90;99.90;;;;;;5019060;28;20030;-91
2022/12/05 02:24:15;;;;;;;17.92;16.23;;;1.00;99.90;;;;;;5012201;28;20021;-90
2022/12/05 02:26:58;;;;;;;15.75;11.63;;;1.00;99.90;;;;;;5022383;28;20075;-90
2022/12/05 02:29:43;;;;;;;29.80;17.38;;;1.10;99.90;;;;;;5011246;28;20128;-87
2022/12/05 02:32:21;;;;;;;32.42;29.65;;;1.10;99.90;;;;;;5019680;28;20174;-88
2022/12/05 02:34:53;;;;;;;51.40;46.97;;;1.10;99.90;;;;;;5012963;28;20043;-87
2022/12/05 02:37:47;;;;;;;20.70;16.35;;;1.00;99.90;;;;;;5019904;28;20036;-88
2022/12/05 02:40:32;;;;;;;19.25;16.17;;;1.00;99.90;;;;;;4992820;28;20034;-90
2022/12/05 02:43:22;;;;;;;18.38;16.58;;;1.00;99.90;;;;;;5020896;28;20115;-88
2022/12/05 02:45:53;;;;;;;19.15;17.55;;;1.00;99.90;;;;;;5010663;28;20087;-87
2022/12/05 02:48:24;;;;;;;22.73;20.20;;;1.10;99.90;;;;;;5015942;28;20046;-88
2022/12/05 02:50:51;;;;;;;18.88;16.65;;;1.10;99.90;;;;;;5019359;28;20495;-90
2022/12/05 02:53:20;;;;;;;26.45;23.75;;;1.20;99.90;;;;;;5007332;28;20026;-87
2022/12/05 02:55:47;;;;;;;37.13;18.92;;;1.20;99.90;;;;;;5009316;28;20026;-86
2022/12/05 02:58:26;;;;;;;23.15;20.50;;;1.20;99.90;;;;;;5006915;28;20142;-88
2022/12/05 03:00:55;;;;;;;18.08;15.63;;;1.20;99.90;;;;;;5016610;28;20416;-88
2022/12/05 03:03:22;;;;;;;18.77;15.38;;;1.30;99.90;;;;;;5011695;28;20511;-88
2022/12/05 03:06:14;;;;;;;29.05;18.10;;;1.20;99.90;;;;;;5012227;28;20076;-86
2022/12/05 03:09:00;;;;;;;16.77;15.05;;;1.30;99.90;;;;;;5015539;28;20034;-86
2022/12/05 03:11:30;;;;;;;17.67;15.52;;;1.20;99.90;;;;;;5017162;28;20116;-88
2022/12/05 03:14:01;;;;;;;26.02;19.88;;;1.20;99.90;;;;;;5013246;28;20026;-90
2022/12/05 03:16:42;;;;;;;;;;;1.30;99.90;;;;;;5012435;28;20033;-88
2022/12/05 03:19:14;;;;;;;26.05;16.13;;;1.30;99.90;;;;;;5022841;28;20360;-88
2022/12/05 03:21:50;;;;;;;18.08;15.60;;;1.30;99.90;;;;;;5012834;28;20138;-88
2022/12/05 03:24:15;;;;;;;21.10;16.25;;;1.30;99.90;;;;;;5020282;28;20029;-88
2022/12/05 03:26:56;;;;;;;25.92;19.55;;;1.30;99.90;;;;;;5014807;28;20602;-88
2022/12/05 03:29:43;;;;;;;23.48;18.38;;;1.30;99.90;;;;;;5020079;28;20072;-87
2022/12/05 03:32:27;;;;;;;19.77;17.73;;;1.40;99.90;;;;;;5013829;28;20042;-88
2022/12/05 03:35:03;;;;;;;22.17;16.55;;;1.40;99.90;;;;;;5019032;28;20395;-89
2022/12/05 03:37:47;;;;;;;104.72;87.90;;;1.40;99.90;;;;;;5012556;28;20373;-88
2022/12/05 03:40:25;;;;;;;19.88;17.70;;;1.40;99.90;;;;;;5016889;28;20088;-88
2022/12/05 03:43:15;;;;;;;19.77;17.90;;;1.40;99.90;;;;;;5017128;28;20067;-89
2022/12/05 03:45:51;;;;;;;24.45;19.10;;;1.40;99.90;;;;;;4992429;28;20049;-88
2022/12/05 03:48:45;;;;;;;21.50;17.35;;;1.40;99.90;;;;;;5016465;28;20120;-86
2022/12/05 03:51:14;;;;;;;29.30;18.90;;;1.40;99.90;;;;;;5014202;28;20029;-86
2022/12/05 03:53:47;;;;;;;22.92;20.75;;;1.40;99.90;;;;;;5019532;28;20030;-88
2022/12/05 03:56:35;;;;;;;19.48;17.73;;;1.40;99.90;;;;;;5009985;28;20050;-89
2022/12/05 03:59:15;;;;;;;19.83;17.88;;;1.40;99.90;;;;;;5032344;28;20563;-86
2022/12/05 04:01:42;;;;;;;36.65;17.15;;;1.50;99.90;;;;;;5012990;28;20141;-89
2022/12/05 04:04:15;;;;;;;25.17;21.17;;;1.40;99.90;;;;;;5014036;28;20546;-87
2022/12/05 04:06:44;;;;;;;23.83;21.33;;;1.60;99.90;;;;;;5014673;28;20057;-91
2022/12/05 04:09:15;;;;;;;19.63;17.85;;;1.70;99.90;;;;;;5019808;28;20567;-89
2022/12/05 04:11:47;;;;;;;25.65;21.33;;;1.60;99.90;;;;;;5016730;28;20520;-88
2022/12/05 04:14:17;;;;;;;25.27;19.90;;;1.70;99.90;;;;;;5014532;28;20040;-90
2022/12/05 04:17:04;;;;;;;25.83;18.42;;;1.60;99.90;;;;;;5017852;28;20026;-88
2022/12/05 04:22:43;;;;;;;19.58;17.00;;;1.60;99.90;;;;;;5017522;28;20120;-87
2022/12/05 04:28:28;;;;;;;26.70;24.15;;;1.60;99.90;;;;;;5007694;28;20060;-89
2022/12/05 04:31:16;;;;;;;20.17;16.92;;;1.50;99.90;;;;;;5010823;28;20540;-89
2022/12/05 04:33:55;;;;;;;21.17;19.00;;;1.50;99.90;;;;;;4997236;28;20110;-89
2022/12/05 04:36:23;;;;;;;26.52;21.40;;;1.60;99.90;;;;;;5009796;28;20044;-90
2022/12/05 04:38:55;;;;;;;31.13;28.38;;;1.60;99.90;;;;;;5013407;28;20041;-87
2022/12/05 04:41:34;;;;;;;24.85;21.90;;;1.60;99.90;;;;;;4996365;28;20109;-88
2022/12/05 04:44:05;;;;;;;31.60;24.17;;;1.70;99.90;;;;;;5030293;28;20112;-88
2022/12/05 04:46:33;;;;;;;22.83;20.20;;;1.70;99.90;;;;;;5011995;28;20404;-88
2022/12/05 04:49:01;;;;;;;24.23;20.52;;;1.60;99.90;;;;;;5018577;28;20128;-88
2022/12/05 04:51:33;;;;;;;44.45;22.30;;;1.60;99.90;;;;;;5018453;28;20030;-89
2022/12/05 04:54:08;;;;;;;29.38;19.80;;;1.60;99.90;;;;;;5005654;28;20544;-88
2022/12/05 04:56:36;;;;;;;50.70;46.53;;;1.70;99.90;;;;;;5019618;28;20483;-88
2022/12/05 04:59:02;;;;;;;24.70;22.30;;;1.70;99.90;;;;;;5014158;28;20022;-88
2022/12/05 05:01:35;;;;;;;24.23;21.85;;;1.70;99.90;;;;;;5012832;28;20082;-88
2022/12/05 05:04:13;;;;;;;20.65;17.75;;;1.80;99.90;;;;;;5018330;28;20022;-88
2022/12/05 05:06:40;;;;;;;21.40;19.25;;;1.90;99.90;;;;;;5015154;28;20064;-88
2022/12/05 05:09:06;;;;;;;22.70;20.30;;;1.80;99.90;;;;;;5022533;28;20025;-88
2022/12/05 05:11:33;;;;;;;26.70;23.98;;;1.80;99.90;;;;;;5023964;28;20045;-89
2022/12/05 05:14:00;;;;;;;27.63;23.58;;;1.80;99.90;;;;;;5012163;28;20083;-86
2022/12/05 05:16:29;;;;;;;22.73;20.27;;;1.90;99.90;;;;;;5016111;28;20108;-87
2022/12/05 05:18:55;;;;;;;23.08;20.83;;;1.90;99.90;;;;;;5008534;28;20026;-87
2022/12/05 05:21:28;;;;;;;22.85;20.42;;;1.80;99.90;;;;;;5017487;28;20040;-88
2022/12/05 05:23:54;;;;;;;41.05;37.47;;;1.80;99.90;;;;;;5017598;28;20776;-88
2022/12/05 05:26:37;;;;;;;47.58;43.80;;;1.90;99.90;;;;;;5015071;28;20034;-84
2022/12/05 05:29:03;;;;;;;25.40;22.55;;;1.90;99.90;;;;;;5014739;28;20095;-87
2022/12/05 05:31:30;;;;;;;40.70;37.70;;;2.00;99.90;;;;;;5019882;28;20462;-87
2022/12/05 05:33:56;;;;;;;139.35;127.35;;;1.90;99.90;;;;;;5016446;28;20030;-87
2022/12/05 05:36:24;;;;;;;25.15;22.75;;;2.00;99.90;;;;;;5011606;28;20029;-88
2022/12/05 05:38:52;;;;;;;25.20;23.20;;;2.00;99.90;;;;;;5015716;28;20115;-88
2022/12/05 05:41:29;;;;;;;26.55;24.25;;;2.00;99.90;;;;;;5013212;28;20030;-85
2022/12/05 05:43:55;;;;;;;24.42;21.65;;;2.00;99.90;;;;;;5022330;28;20033;-87
2022/12/05 05:46:24;;;;;;;22.08;20.08;;;1.90;99.90;;;;;;5014986;28;20042;-83
2022/12/05 05:48:50;;;;;;;24.05;21.95;;;2.00;99.90;;;;;;5013322;28;20510;-86
2022/12/05 05:51:17;;;;;;;24.30;18.15;;;2.00;99.90;;;;;;5012123;28;20034;-88
2022/12/05 05:53:43;;;;;;;21.48;19.30;;;1.90;99.90;;;;;;5013185;28;20042;-84
2022/12/05 05:56:12;;;;;;;23.58;21.30;;;1.90;99.90;;;;;;5006657;28;20669;-83
2022/12/05 05:58:40;;;;;;;31.13;28.58;;;2.00;99.90;;;;;;5004061;28;20190;-87
2022/12/05 06:01:23;;;;;;;27.35;24.77;;;2.00;99.90;;;;;;5004556;28;20031;-84
2022/12/05 06:03:50;;;;;;;19.92;18.05;;;2.10;99.90;;;;;;5003119;28;20026;-87
2022/12/05 06:06:16;;;;;;;27.83;21.42;;;2.00;99.90;;;;;;4997581;28;20035;-88
2022/12/05 06:08:43;;;;;;;27.20;23.90;;;2.10;99.90;;;;;;4999832;28;20396;-85
2022/12/05 06:11:19;;;;;;;23.02;19.13;;;2.10;99.90;;;;;;5001353;28;20041;-84
2022/12/05 06:13:46;;;;;;;23.00;19.95;;;2.00;99.90;;;;;;5010926;28;20041;-87
2022/12/05 06:16:14;;;;;;;72.13;66.63;;;2.00;99.90;;;;;;5015277;28;20095;-88
2022/12/05 06:18:40;;;;;;;95.28;86.95;;;2.00;99.90;;;;;;5017893;28;20033;-89
2022/12/05 06:21:07;;;;;;;28.90;21.48;;;2.00;99.90;;;;;;5012092;28;20128;-85
2022/12/05 06:23:36;;;;;;;49.75;45.90;;;2.00;99.90;;;;;;5015837;28;20033;-85
2022/12/05 06:26:03;;;;;;;34.08;31.08;;;2.00;99.90;;;;;;5014716;28;20281;-84
2022/12/05 06:28:28;;;;;;;28.67;25.17;;;2.00;99.90;;;;;;5015630;28;20056;-86
2022/12/05 06:30:54;;;;;;;29.85;27.42;;;2.10;99.90;;;;;;5016050;28;20034;-84
2022/12/05 06:33:20;;;;;;;24.88;22.77;;;2.00;99.90;;;;;;5017559;28;20061;-82
2022/12/05 06:35:46;;;;;;;29.60;25.98;;;2.00;99.90;;;;;;5021760;28;20025;-81
2022/12/05 06:38:12;;;;;;;25.75;23.83;;;2.00;99.90;;;;;;5011747;28;20511;-88
2022/12/05 06:40:42;;;;;;;52.92;48.92;;;2.00;99.90;;;;;;5021043;28;20042;-86
2022/12/05 06:43:08;;;;;;;43.95;41.00;;;2.00;99.90;;;;;;5015632;28;20026;-86
2022/12/05 06:45:36;;;;;;;36.30;33.30;;;2.10;99.90;;;;;;5017390;28;20038;-87
2022/12/05 06:48:01;;;;;;;149.10;135.10;;;2.00;99.90;;;;;;5017238;28;20471;-86
2022/12/05 06:50:27;;;;;;;32.70;30.02;;;2.10;99.90;;;;;;5014210;28;20064;-83
2022/12/05 06:52:52;;;;;;;28.67;26.13;;;2.00;99.90;;;;;;5020288;28;20512;-88
2022/12/05 06:55:18;;;;;;;38.83;35.95;;;2.00;99.90;;;;;;5013199;28;20026;-83
2022/12/05 06:57:44;;;;;;;26.00;23.58;;;2.00;99.90;;;;;;5021748;28;20034;-89
2022/12/05 07:02:54;;;;;;;25.55;23.52;;;2.10;99.90;;;;;;5019502;28;20036;-80
2022/12/05 07:05:20;;;;;;;46.10;42.40;;;2.10;99.90;;;;;;5016645;28;20037;-83
2022/12/05 07:07:46;;;;;;;44.92;41.47;;;2.10;99.90;;;;;;5015476;28;20411;-81
2022/12/05 07:10:12;;;;;;;73.95;68.60;;;2.20;99.90;;;;;;5017320;28;20081;-83
2022/12/05 07:12:37;;;;;;;56.67;52.90;;;2.20;99.90;;;;;;5008465;28;20036;-82
2022/12/05 07:15:03;;;;;;;66.07;60.70;;;2.20;99.90;;;;;;5016882;28;20069;-77
2022/12/05 07:17:29;;;;;;;44.40;41.08;;;2.20;99.90;;;;;;5015640;28;20037;-82
2022/12/05 07:19:55;;;;;;;27.13;24.88;;;2.20;99.90;;;;;;5019161;28;20509;-78
2022/12/05 07:22:22;;;;;;;29.88;27.27;;;2.20;99.90;;;;;;5019601;28;20044;-84
2022/12/05 07:24:49;;;;;;;174.93;159.73;;;2.30;99.90;;;;;;5013671;28;20500;-80
2022/12/05 07:27:15;;;;;;;26.83;24.33;;;2.30;99.90;;;;;;5022402;28;20034;-81
2022/12/05 07:29:42;;;;;;;52.72;49.25;;;2.30;99.90;;;;;;5011688;28;20508;-82
2022/12/05 07:32:08;;;;;;;42.17;39.47;;;2.30;99.90;;;;;;5019363;28;20026;-81
2022/12/05 07:34:33;;;;;;;119.57;107.15;;;2.40;99.90;;;;;;4998180;28;20041;-77
2022/12/05 07:37:00;;;;;;;29.73;27.25;;;2.40;99.90;;;;;;5004544;28;20037;-77
2022/12/05 07:39:25;;;;;;;39.78;37.22;;;2.40;99.90;;;;;;5017912;28;20091;-81
2022/12/05 07:41:52;;;;;;;28.65;25.75;;;2.40;99.90;;;;;;5015166;28;20045;-80
2022/12/05 07:44:18;;;;;;;29.65;27.05;;;2.50;99.90;;;;;;5017240;28;20050;-77
2022/12/05 07:46:43;;;;;;;32.38;30.02;;;2.60;99.90;;;;;;5008910;28;20083;-79
2022/12/05 07:49:09;;;;;;;29.65;26.92;;;2.70;99.90;;;;;;5011004;28;20030;-82
2022/12/05 07:51:35;;;;;;;26.95;24.15;;;2.80;99.90;;;;;;5015271;28;20060;-81
2022/12/05 07:54:01;;;;;;;35.47;32.13;;;2.80;99.90;;;;;;5011941;28;20527;-82
2022/12/05 07:56:27;;;;;;;73.05;69.20;;;2.80;99.90;;;;;;5010875;28;20116;-79
2022/12/05 07:58:53;;;;;;;26.15;23.83;;;2.80;99.90;;;;;;5008951;28;20460;-83
2022/12/05 08:01:20;;;;;;;44.90;41.38;;;2.80;99.90;;;;;;5018128;28;20028;-81
2022/12/05 08:03:47;;;;;;;29.80;27.58;;;2.90;99.90;;;;;;5010967;28;20030;-80
2022/12/05 08:06:16;;;;;;;29.27;26.58;;;2.80;99.90;;;;;;4999609;28;20033;-80
2022/12/05 08:08:48;;;;;;;27.83;25.50;;;2.80;99.90;;;;;;5020233;28;20029;-78
2022/12/05 08:11:17;;;;;;;61.10;57.80;;;2.80;99.90;;;;;;5015075;28;20068;-83
2022/12/05 08:13:43;;;;;;;46.78;43.83;;;2.80;99.90;;;;;;5019019;28;20058;-83
2022/12/05 08:16:11;;;;;;;37.15;34.53;;;3.00;99.90;;;;;;5016419;28;20018;-79
2022/12/05 08:18:39;;;;;;;27.75;25.42;;;3.10;99.90;;;;;;5016935;28;20048;-80
2022/12/05 08:21:07;;;;;;;43.05;40.33;;;3.10;99.90;;;;;;5014974;28;20068;-79
2022/12/05 08:23:35;;;;;;;27.00;24.92;;;3.10;99.90;;;;;;5010132;28;20076;-81
2022/12/05 08:26:02;;;;;;;38.30;36.00;;;3.10;99.90;;;;;;5015030;28;20029;-80
2022/12/05 08:28:30;;;;;;;29.75;27.13;;;3.10;99.90;;;;;;5010125;28;20045;-82
2022/12/05 08:31:01;;;;;;;24.13;22.27;;;3.00;99.90;;;;;;5017727;28;20041;-80
2022/12/05 08:33:28;;;;;;;29.17;26.70;;;3.00;99.90;;;;;;5015388;28;20034;-79
2022/12/05 08:35:54;;;;;;;23.27;21.73;;;2.90;99.90;;;;;;5017361;28;20108;-82
2022/12/05 08:38:19;;;;;;;28.02;25.80;;;2.90;99.90;;;;;;5017198;28;20503;-84
2022/12/05 08:40:46;;;;;;;23.05;21.05;;;2.90;99.90;;;;;;5005032;28;20040;-80
2022/12/05 08:43:12;;;;;;;65.13;59.50;;;2.80;99.90;;;;;;5014627;28;20249;-81
2022/12/05 08:45:38;;;;;;;31.10;28.45;;;2.80;99.90;;;;;;5013781;28;20466;-79
2022/12/05 08:48:04;;;;;;;31.88;29.65;;;2.80;99.90;;;;;;5024821;28;20483;-82
2022/12/05 08:50:29;;;;;;;64.00;60.00;;;2.80;99.90;;;;;;5016636;28;20034;-83
2022/12/05 08:52:55;;;;;;;44.85;42.40;;;2.90;99.90;;;;;;5020213;28;20029;-81
2022/12/05 08:55:22;;;;;;;28.33;25.83;;;2.90;99.90;;;;;;5015674;28;20353;-83
2022/12/05 08:57:49;;;;;;;56.70;52.78;;;3.00;99.90;;;;;;5017014;28;20064;-82
2022/12/05 09:00:15;;;;;;;20.67;19.08;;;3.00;99.90;;;;;;5022574;28;20034;-82
2022/12/05 09:02:40;;;;;;;24.35;22.27;;;3.00;99.90;;;;;;5012328;28;20089;-84
2022/12/05 09:05:08;;;;;;;21.27;19.50;;;3.00;99.90;;;;;;5020226;28;20033;-80
2022/12/05 09:07:33;;;;;;;20.83;18.95;;;3.00;99.90;;;;;;5015185;28;20117;-82
2022/12/05 09:10:00;;;;;;;46.70;43.20;;;3.10;99.90;;;;;;5021978;28;20108;-82
2022/12/05 09:12:35;;;;;;;26.48;24.42;;;3.10;99.90;;;;;;5012988;28;20052;-87
2022/12/05 09:15:01;;;;;;;17.35;16.35;;;3.10;99.90;;;;;;5011700;28;20025;-83
2022/12/05 09:17:26;;;;;;;14.77;13.48;;;3.20;99.90;;;;;;5018921;28;20553;-84
2022/12/05 09:19:52;;;;;;;243.55;217.00;;;3.20;99.90;;;;;;5014775;28;20034;-83
2022/12/05 09:22:17;;;;;;;15.65;14.48;;;3.20;99.90;;;;;;5002174;28;20399;-85
2022/12/05 09:24:43;;;;;;;21.10;19.58;;;3.10;99.90;;;;;;5015890;28;20087;-82
2022/12/05 09:27:09;;;;;;;13.25;12.45;;;3.10;99.90;;;;;;5015070;28;20088;-83
2022/12/05 09:29:34;;;;;;;22.20;20.90;;;3.20;99.90;;;;;;5018913;28;20873;-83
2022/12/05 09:32:00;;;;;;;20.67;19.40;;;3.30;99.90;;;;;;5009775;28;20040;-82
2022/12/05 09:34:26;;;;;;;21.17;19.75;;;3.40;99.90;;;;;;5018791;28;20036;-81
2022/12/05 09:36:51;;;;;;;90.65;62.65;;;3.50;99.90;;;;;;4996455;28;20022;-80
2022/12/05 09:39:19;;;;;;;19.70;18.63;;;3.50;99.90;;;;;;5014023;28;20088;-80
2022/12/05 09:42:03;;;;;;;11.93;11.23;;;3.60;99.90;;;;;;5016196;28;20096;-81
2022/12/05 09:44:41;;;;;;;11.60;10.80;;;3.70;99.90;;;;;;5013733;28;20462;-81
2022/12/05 09:47:22;;;;;;;26.45;24.45;;;3.70;99.90;;;;;;5010396;28;20033;-80
2022/12/05 09:49:56;;;;;;;10.10;9.50;;;3.60;99.90;;;;;;5010191;28;20030;-82
2022/12/05 09:52:37;;;;;;;30.27;28.58;;;3.60;99.90;;;;;;5013263;28;20035;-82
2022/12/05 09:55:13;;;;;;;9.60;8.90;;;3.60;99.90;;;;;;5007716;28;20153;-81
2022/12/05 09:57:56;;;;;;;21.20;20.10;;;3.70;99.90;;;;;;5029206;28;20029;-81
2022/12/05 10:00:22;;;;;;;30.08;28.23;;;3.70;99.90;;;;;;5014416;28;20034;-83
2022/12/05 10:02:59;;;;;;;10.90;10.13;;;3.70;99.90;;;;;;5021158;28;20702;-82
2022/12/05 10:05:35;;;;;;;12.68;12.07;;;3.70;99.90;;;;;;5017424;28;20038;-81
2022/12/05 10:08:26;;;;;;;12.63;11.90;;;3.60;99.90;;;;;;5015429;28;20036;-83
2022/12/05 10:11:16;;;;;;;62.97;58.53;;;3.80;99.90;;;;;;5012601;28;20109;-82
2022/12/05 10:13:48;;;;;;;10.82;10.23;;;3.80;99.90;;;;;;5009568;28;20037;-80
2022/12/05 10:16:29;;;;;;;14.13;13.20;;;4.00;99.90;;;;;;5017170;28;20029;-81
2022/12/05 10:18:57;;;;;;;;;;;4.00;99.90;;;;;;5039364;28;20084;-81
2022/12/05 10:21:31;;;;;;;17.10;16.30;;;4.00;99.90;;;;;;5012897;28;19913;-83
2022/12/05 10:24:02;;;;;;;11.88;10.77;;;3.80;99.90;;;;;;5007835;28;20049;-80
2022/12/05 10:26:48;;;;;;;;;;;3.80;99.90;;;;;;5009394;28;20030;-80
2022/12/05 10:29:16;;;;;;;6.50;6.13;;;3.90;99.90;;;;;;5010193;28;19922;-82
2022/12/05 10:31:44;;;;;;;11.77;11.07;;;4.00;99.90;;;;;;5010616;28;20037;-80
2022/12/05 10:34:28;;;;;;;41.20;32.95;;;4.00;99.90;;;;;;5018927;28;20552;-81
2022/12/05 10:36:56;;;;;;;12.48;11.73;;;4.00;99.90;;;;;;5011320;28;20388;-81
2022/12/05 10:39:22;;;;;;;15.82;15.02;;;3.90;99.90;;;;;;5013292;28;20029;-80
2022/12/05 10:41:47;;;;;;;17.15;16.27;;;3.90;99.90;;;;;;5012319;28;20040;-82
2022/12/05 10:44:13;;;;;;;14.77;14.05;;;3.70;99.90;;;;;;5019461;28;20694;-80
2022/12/05 10:46:39;;;;;;;22.13;20.77;;;3.60;99.90;;;;;;5009966;28;20083;-78
2022/12/05 10:49:10;;;;;;;110.13;102.35;;;3.60;99.90;;;;;;4995085;28;20042;-82
2022/12/05 10:51:38;;;;;;;13.98;13.20;;;3.60;99.90;;;;;;5010149;28;20033;-79
2022/12/05 10:54:20;;;;;;;13.98;13.25;;;3.70;99.90;;;;;;5014662;28;20025;-78
2022/12/05 10:56:48;;;;;;;13.65;12.85;;;3.70;99.90;;;;;;5013870;28;20046;-80
2022/12/05 10:59:20;;;;;;;15.65;14.75;;;3.70;99.90;;;;;;5015054;28;20156;-81
2022/12/05 11:01:51;;;;;;;22.23;21.17;;;3.80;99.90;;;;;;5014781;28;20134;-81
2022/12/05 11:04:19;;;;;;;47.45;45.38;;;3.80;99.90;;;;;;5003257;28;20049;-80
2022/12/05 11:06:55;;;;;;;12.95;11.85;;;3.50;99.90;;;;;;5016649;28;20036;-79
2022/12/05 11:09:25;;;;;;;14.77;13.77;;;3.50;99.90;;;;;;5015669;28;20033;-80
2022/12/05 11:11:59;;;;;;;14.45;13.40;;;3.50;99.90;;;;;;5014415;28;20030;-78
2022/12/05 11:14:27;;;;;;;15.13;14.07;;;3.40;99.90;;;;;;5009436;28;20038;-79
2022/12/05 11:16:56;;;;;;;15.98;14.95;;;3.50;99.90;;;;;;5012512;28;20036;-82
2022/12/05 11:19:27;;;;;;;12.43;11.48;;;3.60;99.90;;;;;;5013869;28;20025;-84
2022/12/05 11:21:54;;;;;;;14.70;13.73;;;3.50;99.90;;;;;;5012360;28;20022;-84
2022/12/05 11:24:26;;;;;;;16.02;14.95;;;3.50;99.90;;;;;;5015355;28;20083;-81
2022/12/05 11:26:52;;;;;;;14.77;13.55;;;3.60;99.90;;;;;;5026449;28;20026;-81
2022/12/05 11:29:35;;;;;;;16.70;15.45;;;3.60;99.90;;;;;;5044404;28;20057;-78
2022/12/05 11:32:16;;;;;;;15.45;14.25;;;3.60;99.90;;;;;;5009581;28;20456;-79
2022/12/05 11:35:11;;;;;;;16.48;15.13;;;3.60;99.90;;;;;;5019428;28;20095;-78
2022/12/05 11:37:58;;;;;;;13.77;12.57;;;3.60;99.90;;;;;;5015151;28;20491;-83
2022/12/05 11:40:50;;;;;;;17.30;16.35;;;3.70;99.90;;;;;;5030621;28;20037;-79
2022/12/05 11:43:40;;;;;;;13.93;12.80;;;3.80;99.90;;;;;;5014651;28;20519;-82
2022/12/05 11:46:30;;;;;;;16.27;15.18;;;3.80;99.90;;;;;;5015468;28;20772;-82
2022/12/05 11:49:21;;;;;;;21.60;20.58;;;3.90;99.90;;;;;;5014834;28;20131;-77
2022/12/05 11:52:12;;;;;;;11.05;10.32;;;3.90;99.90;;;;;;4999833;28;20080;-81
2022/12/05 11:54:52;;;;;;;18.83;17.50;;;3.70;99.90;;;;;;5005330;28;20101;-77
2022/12/05 11:57:56;;;;;;;11.35;10.65;;;3.70;99.90;;;;;;5006393;28;20049;-79
2022/12/05 12:00:22;;;;;;;10.95;10.23;;;3.80;99.90;;;;;;5002742;28;20058;-81
2022/12/05 12:03:20;;;;;;;11.70;11.02;;;3.70;99.90;;;;;;5009733;28;20057;-81
2022/12/05 12:06:13;;;;;;;10.60;9.90;;;3.70;99.90;;;;;;4999374;28;20113;-79
2022/12/05 12:09:12;;;;;;;11.07;10.23;;;3.70;99.90;;;;;;5001831;28;20030;-80
2022/12/05 12:11:49;;;;;;;12.10;11.23;;;3.80;99.90;;;;;;5009883;28;20038;-83
2022/12/05 12:14:35;;;;;;;11.25;10.63;;;3.90;99.90;;;;;;5014896;28;20026;-78
2022/12/05 12:17:36;;;;;;;18.02;17.17;;;4.10;99.90;;;;;;5020024;28;20499;-81
2022/12/05 12:20:02;;;;;;;9.55;8.95;;;4.00;99.90;;;;;;5015650;28;20033;-79
2022/12/05 12:22:42;;;;;;;15.52;14.52;;;4.00;99.90;;;;;;5022191;28;20024;-82
2022/12/05 12:25:41;;;;;;;12.27;11.55;;;4.10;99.90;;;;;;5018623;28;20022;-80
2022/12/05 12:28:36;;;;;;;10.77;10.00;;;4.10;99.90;;;;;;4999383;28;20050;-78
2022/12/05 12:31:11;;;;;;;8.90;8.32;;;4.30;99.90;;;;;;5013863;28;20042;-77
2022/12/05 12:34:07;;;;;;;14.40;13.60;;;4.40;99.90;;;;;;5015145;28;20108;-79
2022/12/05 12:36:46;;;;;;;7.03;6.63;;;4.60;99.90;;;;;;5012173;28;20045;-80
2022/12/05 12:39:39;;;;;;;7.38;6.97;;;4.60;99.90;;;;;;5014628;28;20029;-80
2022/12/05 12:42:49;;;;;;;6.82;6.53;;;4.50;99.90;;;;;;5025655;28;20034;-79
2022/12/05 12:45:26;;;;;;;6.40;6.00;;;4.60;99.90;;;;;;5013268;28;20518;-77
2022/12/05 12:48:03;;;;;;;7.90;7.50;;;4.60;99.90;;;;;;5010131;28;20065;-82
2022/12/05 12:50:33;;;;;;;8.98;8.38;;;4.60;99.90;;;;;;5019367;28;20073;-80
2022/12/05 12:53:33;;;;;;;8.18;7.55;;;4.50;99.90;;;;;;4997000;28;20025;-79
2022/12/05 12:56:29;;;;;;;9.98;9.38;;;4.60;99.90;;;;;;5021169;28;20028;-80
2022/12/05 12:58:55;;;;;;;6.05;5.75;;;4.40;99.90;;;;;;5015811;28;20460;-77
2022/12/05 13:01:23;;;;;;;25.77;23.63;;;4.30;99.90;;;;;;5019937;28;20026;-82
2022/12/05 13:04:11;;;;;;;53.63;51.22;;;4.30;99.90;;;;;;5018036;28;20062;-80
2022/12/05 13:06:53;;;;;;;6.22;5.93;;;4.10;99.90;;;;;;5024178;28;20817;-79
2022/12/05 13:09:44;;;;;;;35.78;33.33;;;4.00;99.90;;;;;;5020534;28;20380;-82
2022/12/05 13:12:14;;;;;;;6.18;5.88;;;4.10;99.90;;;;;;5018136;28;20080;-80
2022/12/05 13:15:13;;;;;;;6.82;6.43;;;4.10;99.90;;;;;;5018147;28;20059;-79